Time;durP1;ratioP1;P1;durP2;ratioP2;P2;SDS_P1;SDS_P2;PMS_P1;PMS_P2;Temp;Humidity;BMP_temperature;BMP_pressure;BME280_temperature;BME280_humidity;BME280_pressure;Samples;Min_cycle;Max_cycle;Signal;HPM_P1;HPM_P2
2022/11/22 00:00:57;;;;;;;26.27;19.70;;;-1.30;1.00;;;;;;6224133;28;20242;-53
2022/11/22 00:04:02;;;;;;;25.53;18.87;;;-1.20;1.00;;;;;;6219184;28;20242;-52
2022/11/22 00:07:04;;;;;;;31.90;21.67;;;-1.00;1.00;;;;;;6243161;28;20245;-52
2022/11/22 00:10:10;;;;;;;26.87;19.80;;;-1.10;1.00;;;;;;6256114;28;20248;-54
2022/11/22 00:13:13;;;;;;;27.87;19.53;;;-1.20;1.00;;;;;;6234425;28;20244;-53
2022/11/22 00:16:16;;;;;;;23.87;19.00;;;-1.10;1.00;;;;;;6237415;28;20481;-53
2022/11/22 00:19:20;;;;;;;27.27;20.67;;;-1.30;1.00;;;;;;6213694;28;20242;-53
2022/11/22 00:22:23;;;;;;;24.37;19.50;;;-1.00;1.00;;;;;;6213082;28;20634;-53
2022/11/22 00:25:27;;;;;;;23.60;19.43;;;-1.20;1.00;;;;;;6231340;28;20230;-53
2022/11/22 00:28:30;;;;;;;24.70;19.57;;;-1.00;1.00;;;;;;6237593;28;20250;-53
2022/11/22 00:31:33;;;;;;;27.87;20.63;;;-1.20;1.00;;;;;;6237089;28;20733;-53
2022/11/22 00:34:37;;;;;;;28.30;19.87;;;-1.10;1.00;;;;;;6234377;28;20894;-53
2022/11/22 00:37:40;;;;;;;28.57;20.80;;;-1.40;1.00;;;;;;6232389;28;20242;-53
2022/11/22 00:40:43;;;;;;;23.90;19.63;;;-1.40;1.00;;;;;;6244399;28;20248;-52
2022/11/22 00:43:46;;;;;;;24.87;19.67;;;-1.30;1.00;;;;;;6231026;28;20231;-53
2022/11/22 00:46:49;;;;;;;24.33;19.10;;;-1.40;1.00;;;;;;6213929;28;20238;-52
2022/11/22 00:49:54;;;;;;;25.07;19.67;;;-1.30;1.00;;;;;;6231685;28;20583;-55
2022/11/22 00:52:57;;;;;;;24.73;19.53;;;-1.30;1.00;;;;;;6237092;28;20421;-53
2022/11/22 00:56:00;;;;;;;28.87;20.23;;;-1.50;1.00;;;;;;6233059;28;20246;-54
2022/11/22 00:59:03;;;;;;;26.27;19.77;;;-1.30;1.00;;;;;;6222743;28;20333;-53
2022/11/22 01:02:06;;;;;;;26.60;20.07;;;-1.50;1.00;;;;;;6238723;28;20732;-54
2022/11/22 01:05:10;;;;;;;25.47;19.10;;;-1.30;1.00;;;;;;6225878;28;20253;-56
2022/11/22 01:08:13;;;;;;;25.67;18.90;;;-1.50;1.00;;;;;;6233518;28;20242;-52
2022/11/22 01:11:18;;;;;;;27.97;19.93;;;-1.20;1.00;;;;;;6244082;28;20261;-51
2022/11/22 01:14:21;;;;;;;26.80;20.13;;;-1.20;1.00;;;;;;6236501;28;20623;-56
2022/11/22 01:17:24;;;;;;;27.23;21.20;;;-1.10;1.00;;;;;;6211792;28;20243;-51
2022/11/22 01:20:29;;;;;;;25.97;19.73;;;-1.50;1.00;;;;;;6211240;28;20255;-51
2022/11/22 01:23:33;;;;;;;28.80;19.43;;;-1.30;1.00;;;;;;6212663;28;20247;-52
2022/11/22 01:26:36;;;;;;;26.27;20.10;;;-1.30;1.00;;;;;;6210956;28;20239;-52
2022/11/22 01:29:39;;;;;;;25.83;20.10;;;-1.50;1.00;;;;;;6211765;28;20239;-51
2022/11/22 01:32:42;;;;;;;24.73;20.17;;;-1.40;1.00;;;;;;6211417;28;20231;-53
2022/11/22 01:35:47;;;;;;;26.50;19.97;;;-1.40;1.00;;;;;;6220433;28;20230;-53
2022/11/22 01:38:50;;;;;;;26.53;19.77;;;-1.20;1.00;;;;;;6235124;28;20254;-53
2022/11/22 01:41:53;;;;;;;26.00;19.93;;;-1.50;1.00;;;;;;6233795;28;20751;-52
2022/11/22 01:44:55;;;;;;;28.03;20.60;;;-1.40;1.00;;;;;;6235351;28;20767;-53
2022/11/22 01:48:02;;;;;;;28.47;20.27;;;-1.30;1.00;;;;;;6235732;28;20393;-52
2022/11/22 01:51:20;;;;;;;26.97;19.50;;;-1.30;1.00;;;;;;6235511;28;20621;-53
2022/11/22 01:54:27;;;;;;;31.77;21.40;;;-1.40;1.00;;;;;;6236622;28;20724;-53
2022/11/22 01:57:34;;;;;;;28.27;19.93;;;-1.70;1.00;;;;;;6225700;28;20241;-52
2022/11/22 02:00:38;;;;;;;29.80;20.97;;;-1.60;1.00;;;;;;6211444;28;20740;-53
2022/11/22 02:03:45;;;;;;;30.90;21.00;;;-1.40;1.00;;;;;;6212319;28;20232;-51
2022/11/22 02:06:56;;;;;;;28.73;21.10;;;-1.40;1.00;;;;;;6227799;28;20250;-52
2022/11/22 02:09:59;;;;;;;25.53;20.00;;;-1.60;1.00;;;;;;6237095;28;20238;-52
2022/11/22 02:13:03;;;;;;;28.07;19.80;;;-1.50;1.00;;;;;;6235448;28;20231;-53
2022/11/22 02:16:06;;;;;;;29.53;20.13;;;-1.30;1.00;;;;;;6235642;28;20239;-51
2022/11/22 02:19:14;;;;;;;28.17;20.63;;;-1.20;1.00;;;;;;6228241;28;20481;-54
2022/11/22 02:22:31;;;;;;;28.23;20.10;;;-1.40;1.00;;;;;;6210535;28;20645;-51
2022/11/22 02:25:48;;;;;;;23.33;19.43;;;-1.10;1.00;;;;;;6210407;28;20228;-53
2022/11/22 02:28:52;;;;;;;25.90;19.57;;;-1.10;1.00;;;;;;6210156;28;20650;-52
2022/11/22 02:31:55;;;;;;;31.83;21.00;;;-1.20;1.00;;;;;;6211110;28;20231;-52
2022/11/22 02:34:58;;;;;;;27.83;19.93;;;-1.20;1.00;;;;;;6212789;28;20315;-52
2022/11/22 02:38:04;;;;;;;26.03;20.43;;;-1.20;1.00;;;;;;6234655;28;20245;-51
2022/11/22 02:41:11;;;;;;;29.57;19.87;;;-1.40;1.00;;;;;;6244308;28;20235;-53
2022/11/22 02:44:15;;;;;;;28.83;20.03;;;-1.40;1.00;;;;;;6238604;28;20235;-52
2022/11/22 02:47:18;;;;;;;24.37;19.87;;;-1.30;1.00;;;;;;6225544;28;20242;-53
2022/11/22 02:50:21;;;;;;;26.90;20.00;;;-1.10;1.00;;;;;;6210560;28;20246;-51
2022/11/22 02:53:24;;;;;;;28.13;20.13;;;-1.20;1.00;;;;;;6225329;28;20242;-52
2022/11/22 02:56:29;;;;;;;25.50;19.47;;;-1.50;1.00;;;;;;6218899;28;20243;-52
2022/11/22 02:59:32;;;;;;;30.20;21.53;;;-1.20;1.00;;;;;;6200517;28;20236;-52
2022/11/22 03:02:35;;;;;;;30.50;22.73;;;-1.30;1.00;;;;;;6200163;28;20231;-46
2022/11/22 03:05:38;;;;;;;32.33;21.87;;;-1.10;1.00;;;;;;6216692;28;20239;-50
2022/11/22 03:08:41;;;;;;;30.87;21.37;;;-1.10;1.00;;;;;;6228314;28;20250;-50
2022/11/22 03:11:46;;;;;;;27.30;20.07;;;-1.00;1.00;;;;;;6241707;28;20250;-52
2022/11/22 03:14:49;;;;;;;23.43;20.80;;;-1.10;1.00;;;;;;6223728;28;20254;-53
2022/11/22 03:17:57;;;;;;;29.87;20.30;;;-1.10;1.00;;;;;;6214894;28;20413;-53
2022/11/22 03:21:02;;;;;;;28.97;21.17;;;-1.10;1.00;;;;;;6209353;28;20246;-55
2022/11/22 03:24:06;;;;;;;29.13;21.57;;;-1.30;1.00;;;;;;6212424;28;20239;-55
2022/11/22 03:27:11;;;;;;;26.50;19.77;;;-1.10;1.00;;;;;;6227522;28;20242;-54
2022/11/22 03:30:14;;;;;;;24.17;19.23;;;-1.20;1.00;;;;;;6233175;28;20234;-52
2022/11/22 03:33:17;;;;;;;28.27;21.07;;;-1.10;1.00;;;;;;6229125;28;20238;-52
2022/11/22 03:36:20;;;;;;;28.30;22.47;;;-1.10;1.00;;;;;;6212514;28;20239;-58
2022/11/22 03:39:24;;;;;;;29.10;21.30;;;-1.20;1.00;;;;;;6232037;28;20231;-52
2022/11/22 03:42:28;;;;;;;32.63;21.30;;;-1.50;1.00;;;;;;6245299;28;20701;-52
2022/11/22 03:45:31;;;;;;;28.90;20.73;;;-1.20;1.00;;;;;;6238274;28;20235;-52
2022/11/22 03:48:34;;;;;;;30.27;21.00;;;-1.20;1.00;;;;;;6236936;28;20246;-52
2022/11/22 03:51:37;;;;;;;33.03;22.43;;;-1.20;1.00;;;;;;6237734;28;20234;-51
2022/11/22 03:54:40;;;;;;;31.57;22.13;;;-1.20;1.00;;;;;;6237206;28;20246;-51
2022/11/22 03:57:44;;;;;;;31.10;21.83;;;-1.20;1.00;;;;;;6214323;28;20598;-52
2022/11/22 04:00:47;;;;;;;30.83;22.50;;;-1.30;1.00;;;;;;6213522;28;20228;-52
2022/11/22 04:03:51;;;;;;;33.80;21.93;;;-1.20;1.00;;;;;;6213040;28;20235;-51
2022/11/22 04:06:54;;;;;;;29.37;20.40;;;-1.30;1.00;;;;;;6230555;28;20859;-53
2022/11/22 04:09:57;;;;;;;33.70;22.00;;;-1.20;1.00;;;;;;6239775;28;20235;-51
2022/11/22 04:13:02;;;;;;;32.27;22.20;;;-1.10;1.00;;;;;;6239562;28;20338;-51
2022/11/22 04:16:04;;;;;;;29.50;21.03;;;-1.10;1.00;;;;;;6224445;28;20390;-51
2022/11/22 04:19:07;;;;;;;30.63;21.87;;;-1.20;1.00;;;;;;6213232;28;20239;-51
2022/11/22 04:22:09;;;;;;;32.03;22.73;;;-1.20;1.00;;;;;;6203625;28;20618;-52
2022/11/22 04:25:15;;;;;;;33.30;22.03;;;-1.30;1.00;;;;;;6225260;28;20242;-54
2022/11/22 04:28:21;;;;;;;34.03;22.93;;;-1.20;1.00;;;;;;6237150;28;20242;-52
2022/11/22 04:35:06;;;;;;;31.57;22.17;;;-1.20;1.00;;;;;;6234875;28;20394;-52
2022/11/22 04:38:09;;;;;;;35.77;23.53;;;-1.10;1.00;;;;;;6228448;28;20238;-52
2022/11/22 04:41:12;;;;;;;37.33;23.80;;;-0.90;1.00;;;;;;6242129;28;20239;-51
2022/11/22 04:54:24;;;;;;;39.33;24.30;;;-1.10;1.00;;;;;;6234701;28;20242;-53
2022/11/22 04:57:27;;;;;;;41.53;24.20;;;-1.00;1.00;;;;;;6228218;28;20238;-52
2022/11/22 05:00:32;;;;;;;38.90;24.53;;;-1.10;1.00;;;;;;6232631;28;20755;-50
2022/11/22 05:03:35;;;;;;;40.07;24.40;;;-1.10;1.00;;;;;;6234295;28;20284;-53
2022/11/22 05:06:38;;;;;;;35.23;23.90;;;-0.80;1.00;;;;;;6221759;28;20239;-51
2022/11/22 05:09:41;;;;;;;35.80;23.97;;;-0.90;1.00;;;;;;6231931;28;20238;-52
2022/11/22 05:12:44;;;;;;;34.90;23.20;;;-0.90;1.00;;;;;;6240645;28;20241;-52
2022/11/22 05:15:50;;;;;;;39.40;24.73;;;-0.70;1.00;;;;;;6236116;28;20605;-50
2022/11/22 05:18:58;;;;;;;38.83;24.90;;;-0.70;1.00;;;;;;6228592;28;20235;-52
2022/11/22 05:22:01;;;;;;;38.87;24.50;;;-0.90;1.00;;;;;;6233551;28;20239;-52
2022/11/22 05:25:04;;;;;;;40.47;24.07;;;-0.90;1.00;;;;;;6238938;28;20238;-52
2022/11/22 05:28:07;;;;;;;35.93;23.93;;;-0.90;1.00;;;;;;6238471;28;20246;-52
2022/11/22 05:31:13;;;;;;;37.87;24.80;;;-0.80;1.00;;;;;;6233113;28;20230;-52
2022/11/22 05:34:16;;;;;;;37.33;24.43;;;-1.00;1.00;;;;;;6223176;28;20250;-52
2022/11/22 05:37:20;;;;;;;40.40;25.37;;;-0.80;1.00;;;;;;6230796;28;20261;-52
2022/11/22 05:40:23;;;;;;;41.27;24.73;;;-0.80;1.00;;;;;;6235224;28;20245;-55
2022/11/22 05:43:27;;;;;;;40.93;23.93;;;-0.80;1.00;;;;;;6234293;28;20230;-52
2022/11/22 05:46:32;;;;;;;39.13;24.33;;;-0.70;1.00;;;;;;6236769;28;20310;-52
2022/11/22 05:49:35;;;;;;;40.77;24.57;;;-0.60;1.00;;;;;;6226071;28;20231;-50
2022/11/22 05:52:38;;;;;;;38.57;24.37;;;-0.70;1.00;;;;;;6234375;28;20239;-50
2022/11/22 05:55:41;;;;;;;38.63;24.13;;;-0.70;1.00;;;;;;6229046;28;20288;-50
2022/11/22 05:58:44;;;;;;;39.33;24.30;;;-0.80;1.00;;;;;;6231988;28;20296;-52
2022/11/22 06:01:49;;;;;;;42.30;25.80;;;-0.60;1.00;;;;;;6236445;28;20238;-52
2022/11/22 06:04:52;;;;;;;43.47;25.40;;;-0.70;1.00;;;;;;6225684;28;20235;-52
2022/11/22 06:07:58;;;;;;;37.17;24.37;;;-0.70;1.00;;;;;;6228134;28;20264;-51
2022/11/22 06:11:05;;;;;;;39.53;24.30;;;-0.70;1.00;;;;;;6235022;28;20253;-54
2022/11/22 06:14:09;;;;;;;36.67;24.17;;;-0.70;1.00;;;;;;6230717;28;20715;-53
2022/11/22 06:17:13;;;;;;;42.43;24.67;;;-0.70;1.00;;;;;;6236487;28;20752;-53
2022/11/22 06:20:16;;;;;;;40.47;24.87;;;-0.80;1.00;;;;;;6231043;28;20250;-52
2022/11/22 06:23:19;;;;;;;43.23;24.77;;;-0.70;1.00;;;;;;6234623;28;20230;-52
2022/11/22 06:26:23;;;;;;;39.23;23.93;;;-0.70;1.00;;;;;;6229816;28;20243;-57
2022/11/22 06:29:28;;;;;;;42.40;24.80;;;-0.40;1.00;;;;;;6229554;28;20230;-52
2022/11/22 06:32:34;;;;;;;40.53;24.83;;;-0.60;1.00;;;;;;6243114;28;20480;-53
2022/11/22 06:35:37;;;;;;;42.47;24.93;;;-0.60;1.00;;;;;;6228171;28;20823;-53
2022/11/22 06:38:41;;;;;;;43.43;25.20;;;-0.80;1.00;;;;;;6205137;28;20235;-50
2022/11/22 06:41:44;;;;;;;40.07;25.10;;;-0.70;1.00;;;;;;6235958;28;20226;-54
2022/11/22 06:44:46;;;;;;;44.23;25.10;;;-0.30;1.00;;;;;;6233942;28;20750;-53
2022/11/22 06:47:51;;;;;;;42.30;25.33;;;-0.50;1.00;;;;;;6232832;28;20239;-52
2022/11/22 06:50:58;;;;;;;41.97;24.30;;;-0.50;1.00;;;;;;6233125;28;20829;-51
2022/11/22 06:54:01;;;;;;;38.50;24.73;;;-0.30;1.00;;;;;;6233694;28;20238;-53
2022/11/22 06:57:04;;;;;;;37.97;24.43;;;-0.30;1.00;;;;;;6225427;28;20676;-53
2022/11/22 07:00:09;;;;;;;39.07;23.57;;;-0.50;1.00;;;;;;6233110;28;20238;-52
2022/11/22 07:03:13;;;;;;;38.60;24.20;;;-0.20;1.00;;;;;;6233689;28;20230;-52
2022/11/22 07:06:18;;;;;;;34.13;23.17;;;-0.20;1.00;;;;;;6229879;28;20254;-52
2022/11/22 07:09:21;;;;;;;43.10;25.63;;;-0.30;1.00;;;;;;6232841;28;20242;-53
2022/11/22 07:12:24;;;;;;;37.93;24.23;;;-0.50;1.00;;;;;;6246573;28;20724;-53
2022/11/22 07:15:27;;;;;;;37.77;24.87;;;-0.30;1.00;;;;;;6233104;28;20239;-52
2022/11/22 07:18:32;;;;;;;38.93;24.37;;;-0.30;1.00;;;;;;6238538;28;20292;-58
2022/11/22 07:21:37;;;;;;;39.47;23.93;;;-0.20;1.00;;;;;;6237113;28;20235;-52
2022/11/22 07:24:40;;;;;;;36.40;22.77;;;-0.10;1.00;;;;;;6238311;28;20235;-53
2022/11/22 07:27:42;;;;;;;34.70;23.00;;;-0.40;1.00;;;;;;6233783;28;20231;-53
2022/11/22 07:30:45;;;;;;;35.70;23.00;;;-0.20;1.00;;;;;;6237223;28;20268;-49
2022/11/22 07:33:50;;;;;;;36.97;23.47;;;-0.40;1.00;;;;;;6236459;28;20265;-51
2022/11/22 07:36:53;;;;;;;36.13;23.13;;;-0.10;1.00;;;;;;6237636;28;20857;-53
2022/11/22 07:40:02;;;;;;;37.73;23.83;;;0.00;1.00;;;;;;6233019;28;20496;-53
2022/11/22 07:43:05;;;;;;;36.07;23.47;;;-0.10;1.00;;;;;;6236034;28;20587;-54
2022/11/22 07:46:13;;;;;;;34.43;24.00;;;-0.10;1.00;;;;;;6238844;28;20231;-53
2022/11/22 07:49:18;;;;;;;42.93;25.33;;;-0.10;1.00;;;;;;6237027;28;20246;-53
2022/11/22 07:52:21;;;;;;;36.73;23.70;;;-0.10;1.00;;;;;;6236388;28;20759;-56
2022/11/22 07:55:25;;;;;;;38.77;25.20;;;0.00;1.00;;;;;;6234345;28;20716;-53
2022/11/22 07:58:28;;;;;;;37.63;24.00;;;0.10;1.00;;;;;;6237973;28;20246;-53
2022/11/22 08:01:31;;;;;;;38.07;24.30;;;0.00;1.00;;;;;;6236210;28;20241;-53
2022/11/22 08:04:36;;;;;;;37.47;24.30;;;0.20;1.00;;;;;;6229647;28;20741;-53
2022/11/22 08:07:39;;;;;;;41.07;24.23;;;0.10;1.00;;;;;;6239358;28;20238;-54
2022/11/22 08:10:43;;;;;;;38.43;24.87;;;0.20;1.00;;;;;;6231151;28;20712;-53
2022/11/22 08:13:46;;;;;;;38.67;23.10;;;0.10;1.00;;;;;;6204969;28;20242;-53
2022/11/22 08:16:49;;;;;;;37.80;24.03;;;0.20;1.00;;;;;;6210844;28;20240;-54
2022/11/22 08:19:54;;;;;;;36.47;23.03;;;0.30;1.00;;;;;;6211937;28;20235;-53
2022/11/22 08:22:57;;;;;;;36.03;23.53;;;0.10;1.00;;;;;;6211895;28;20235;-52
2022/11/22 08:26:00;;;;;;;38.83;24.50;;;0.20;1.00;;;;;;6206491;28;20246;-55
2022/11/22 08:29:04;;;;;;;33.83;22.43;;;0.30;1.00;;;;;;6211897;28;20250;-52
2022/11/22 08:32:14;;;;;;;39.30;23.60;;;0.20;1.00;;;;;;6209415;28;20235;-53
2022/11/22 08:35:18;;;;;;;38.20;24.60;;;0.20;1.00;;;;;;6206121;28;20254;-53
2022/11/22 08:38:21;;;;;;;38.13;24.53;;;0.30;1.00;;;;;;6211474;28;21273;-53
2022/11/22 08:41:25;;;;;;;45.43;24.53;;;0.30;1.00;;;;;;6210921;28;20669;-53
2022/11/22 08:44:28;;;;;;;46.70;25.53;;;0.40;1.00;;;;;;6214182;28;20242;-53
2022/11/22 08:47:31;;;;;;;40.00;26.07;;;0.30;1.00;;;;;;6208837;28;20261;-54
2022/11/22 08:50:35;;;;;;;41.47;25.60;;;0.60;1.00;;;;;;6212164;28;20238;-54
2022/11/22 08:53:39;;;;;;;45.53;26.03;;;0.30;1.00;;;;;;6213210;28;20238;-51
2022/11/22 08:56:42;;;;;;;42.13;26.10;;;0.60;1.00;;;;;;6208773;28;20383;-54
2022/11/22 08:59:45;;;;;;;38.80;24.27;;;0.30;1.00;;;;;;6211394;28;20246;-53
2022/11/22 09:02:48;;;;;;;42.70;26.13;;;0.60;1.00;;;;;;6215190;28;20227;-53
2022/11/22 09:05:52;;;;;;;47.70;26.43;;;0.40;1.00;;;;;;6209821;28;20228;-51
2022/11/22 09:09:15;;;;;;;44.80;27.63;;;0.40;1.00;;;;;;6209277;28;21472;-53
2022/11/22 09:12:38;;;;;;;44.27;26.03;;;0.50;1.00;;;;;;6210159;28;20770;-53
2022/11/22 09:15:41;;;;;;;45.57;26.37;;;0.80;1.00;;;;;;6205987;28;20614;-54
2022/11/22 09:18:44;;;;;;;45.07;26.70;;;0.80;1.00;;;;;;6211741;28;20239;-53
2022/11/22 09:21:49;;;;;;;47.90;26.83;;;1.10;1.00;;;;;;6204953;28;20642;-54
2022/11/22 09:24:52;;;;;;;48.07;28.00;;;1.10;1.00;;;;;;6208556;28;20407;-54
2022/11/22 09:27:55;;;;;;;47.53;27.07;;;1.00;1.00;;;;;;6211682;28;20269;-54
2022/11/22 09:31:02;;;;;;;47.13;27.20;;;1.10;1.00;;;;;;6209901;28;20539;-53
2022/11/22 09:34:05;;;;;;;48.07;27.93;;;0.70;1.00;;;;;;6206288;28;20254;-52
2022/11/22 09:37:09;;;;;;;44.00;26.77;;;0.90;1.00;;;;;;6205280;28;20255;-53
2022/11/22 09:40:13;;;;;;;49.93;27.40;;;0.80;1.00;;;;;;6210823;28;20322;-54
2022/11/22 09:43:24;;;;;;;43.47;27.60;;;1.10;1.00;;;;;;6210464;28;20397;-54
2022/11/22 09:46:35;;;;;;;44.90;27.00;;;1.00;1.00;;;;;;6211940;28;20739;-52
2022/11/22 09:49:43;;;;;;;40.80;24.77;;;1.20;1.00;;;;;;6209990;28;20772;-54
2022/11/22 09:52:53;;;;;;;42.93;25.80;;;1.30;1.00;;;;;;6200306;28;20749;-54
2022/11/22 09:55:59;;;;;;;50.50;27.27;;;1.00;1.00;;;;;;6218239;28;20744;-49
2022/11/22 09:59:06;;;;;;;46.60;27.37;;;1.20;1.00;;;;;;6205048;28;20334;-52
2022/11/22 10:02:15;;;;;;;46.30;27.13;;;1.10;1.00;;;;;;6209804;28;20620;-54
2022/11/22 10:05:25;;;;;;;46.57;27.60;;;1.10;1.00;;;;;;6215083;28;20235;-53
2022/11/22 10:08:37;;;;;;;47.23;28.10;;;1.10;1.00;;;;;;6229616;28;20247;-53
2022/11/22 10:11:45;;;;;;;45.07;27.40;;;1.30;1.00;;;;;;6235033;28;20306;-52
2022/11/22 10:14:54;;;;;;;42.60;26.77;;;1.50;1.00;;;;;;6232152;28;20500;-54
2022/11/22 10:18:00;;;;;;;46.53;28.37;;;1.40;1.00;;;;;;6225737;28;20721;-53
2022/11/22 10:21:05;;;;;;;50.20;27.87;;;1.20;1.00;;;;;;6233147;28;20475;-54
2022/11/22 10:24:15;;;;;;;44.80;26.83;;;1.20;1.00;;;;;;6231764;28;21385;-53
2022/11/22 10:27:18;;;;;;;47.73;27.37;;;1.20;1.00;;;;;;6216914;28;20250;-52
2022/11/22 10:30:22;;;;;;;44.77;26.50;;;1.40;1.00;;;;;;6234755;28;20693;-52
2022/11/22 10:33:32;;;;;;;43.67;25.27;;;1.40;1.00;;;;;;6232443;28;20230;-54
2022/11/22 10:36:43;;;;;;;50.77;28.37;;;1.20;1.00;;;;;;6233503;28;20238;-54
2022/11/22 10:40:08;;;;;;;43.50;26.90;;;1.60;1.00;;;;;;6234551;28;20245;-54
2022/11/22 10:43:27;;;;;;;48.50;27.63;;;1.30;1.00;;;;;;6226507;28;20238;-55
2022/11/22 10:46:41;;;;;;;44.97;26.40;;;1.60;1.00;;;;;;6236813;28;20747;-53
2022/11/22 10:49:55;;;;;;;46.37;26.77;;;1.40;1.00;;;;;;6236800;28;20234;-57
2022/11/22 10:53:05;;;;;;;50.00;28.30;;;1.50;1.00;;;;;;6236697;28;20249;-54
2022/11/22 10:56:16;;;;;;;47.00;26.60;;;1.40;1.00;;;;;;6223652;28;20265;-52
2022/11/22 10:59:38;;;;;;;45.13;26.50;;;1.70;1.00;;;;;;6241127;28;20261;-53
2022/11/22 11:02:58;;;;;;;50.47;28.07;;;1.60;1.00;;;;;;6240116;28;20622;-54
2022/11/22 11:06:07;;;;;;;43.67;26.70;;;1.50;1.00;;;;;;6207843;28;20729;-54
2022/11/22 11:09:35;;;;;;;49.40;27.37;;;1.90;1.00;;;;;;6209372;28;20254;-53
2022/11/22 11:13:04;;;;;;;44.03;26.87;;;1.60;1.00;;;;;;6213648;28;20474;-54
2022/11/22 11:16:10;;;;;;;47.90;27.93;;;1.70;1.00;;;;;;6213165;28;20315;-54
2022/11/22 11:19:18;;;;;;;46.27;27.20;;;1.80;1.00;;;;;;6210468;28;20725;-53
2022/11/22 11:22:24;;;;;;;45.43;26.83;;;1.80;1.00;;;;;;6213264;28;20235;-54
2022/11/22 11:25:51;;;;;;;45.27;27.70;;;1.80;1.00;;;;;;6209405;28;20730;-54
2022/11/22 11:29:42;;;;;;;49.33;27.60;;;2.00;1.00;;;;;;6211800;28;20238;-54
2022/11/22 11:32:53;;;;;;;48.17;27.77;;;1.90;1.00;;;;;;6136957;28;20480;-53
2022/11/22 11:36:01;;;;;;;45.00;26.43;;;2.00;1.00;;;;;;6129817;28;20792;-54
2022/11/22 11:39:04;;;;;;;44.27;27.00;;;2.00;1.00;;;;;;6237393;28;20594;-53
2022/11/22 11:42:25;;;;;;;46.70;26.53;;;2.30;1.00;;;;;;6216028;28;20637;-54
2022/11/22 11:45:29;;;;;;;41.90;25.77;;;2.10;1.00;;;;;;6239399;28;20235;-53
2022/11/22 11:48:39;;;;;;;44.53;27.00;;;2.20;1.00;;;;;;6236275;28;20245;-54
2022/11/22 11:51:44;;;;;;;45.23;26.87;;;2.20;1.00;;;;;;6227674;28;20493;-55
2022/11/22 11:54:49;;;;;;;41.77;25.37;;;2.20;1.00;;;;;;6235667;28;20681;-53
2022/11/22 11:57:53;;;;;;;43.73;25.80;;;2.20;1.00;;;;;;6214606;28;20504;-59
2022/11/22 12:00:57;;;;;;;47.10;26.90;;;2.30;1.00;;;;;;6213437;28;20250;-53
2022/11/22 12:04:03;;;;;;;47.53;25.67;;;2.30;1.00;;;;;;6211670;28;20235;-53
2022/11/22 12:07:18;;;;;;;49.40;28.17;;;2.30;1.00;;;;;;6206957;28;20247;-54
2022/11/22 12:10:31;;;;;;;43.90;26.23;;;2.20;1.00;;;;;;6210733;28;20604;-54
2022/11/22 12:13:40;;;;;;;39.50;25.77;;;2.20;1.00;;;;;;6206262;28;20243;-54
2022/11/22 12:17:12;;;;;;;44.67;26.30;;;2.30;1.00;;;;;;6210621;28;20639;-54
2022/11/22 12:20:21;;;;;;;43.17;25.87;;;2.30;1.00;;;;;;6218481;28;20224;-55
2022/11/22 12:23:31;;;;;;;47.33;27.83;;;2.30;1.00;;;;;;6219483;28;20238;-55
2022/11/22 12:26:34;;;;;;;43.23;26.53;;;2.30;1.00;;;;;;6230635;28;20269;-53
2022/11/22 12:29:39;;;;;;;41.63;26.97;;;2.40;1.00;;;;;;6245528;28;20230;-55
2022/11/22 12:32:47;;;;;;;48.53;28.80;;;2.40;1.00;;;;;;6236182;28;20230;-54
2022/11/22 12:35:54;;;;;;;41.10;27.30;;;2.30;1.00;;;;;;6221401;28;20223;-59
2022/11/22 12:39:01;;;;;;;47.70;27.77;;;2.40;1.00;;;;;;6237567;28;20237;-53
2022/11/22 12:42:10;;;;;;;42.50;25.90;;;2.30;1.00;;;;;;6239837;28;20496;-55
2022/11/22 12:45:23;;;;;;;41.57;26.73;;;2.40;1.00;;;;;;6236043;28;20238;-54
2022/11/22 12:48:30;;;;;;;44.70;26.90;;;2.40;1.00;;;;;;6224850;28;20223;-52
2022/11/22 12:51:41;;;;;;;47.70;26.93;;;2.30;1.00;;;;;;6233834;28;20651;-55
2022/11/22 12:54:52;;;;;;;48.80;26.90;;;2.20;1.00;;;;;;6232729;28;20235;-54
2022/11/22 12:58:07;;;;;;;48.03;27.57;;;2.30;1.00;;;;;;6236685;28;20239;-55
2022/11/22 13:01:17;;;;;;;52.37;28.80;;;2.20;1.00;;;;;;6231709;28;20280;-53
2022/11/22 13:04:27;;;;;;;48.47;29.50;;;2.30;1.00;;;;;;6204977;28;20232;-54
2022/11/22 13:07:49;;;;;;;42.70;26.30;;;2.30;1.00;;;;;;6206625;28;20552;-54
2022/11/22 13:10:56;;;;;;;45.30;26.03;;;2.30;1.00;;;;;;6215389;28;20804;-54
2022/11/22 13:14:05;;;;;;;45.57;26.77;;;2.30;1.00;;;;;;6235600;28;20242;-54
2022/11/22 13:17:09;;;;;;;43.37;25.43;;;2.40;1.00;;;;;;6230965;28;20258;-55
2022/11/22 13:20:18;;;;;;;48.73;26.67;;;2.50;1.00;;;;;;6235201;28;20242;-58
2022/11/22 13:23:44;;;;;;;45.67;26.20;;;2.30;1.00;;;;;;6223182;28;20231;-60
2022/11/22 13:26:57;;;;;;;49.20;26.63;;;2.40;1.00;;;;;;6231800;28;20552;-55
2022/11/22 13:30:02;;;;;;;46.63;26.83;;;2.60;1.00;;;;;;6213667;28;20231;-55
2022/11/22 13:33:06;;;;;;;45.47;27.17;;;2.40;1.00;;;;;;6203722;28;20315;-55
2022/11/22 13:36:37;;;;;;;44.53;26.93;;;2.40;1.00;;;;;;6213259;28;20382;-53
2022/11/22 13:39:45;;;;;;;44.80;27.33;;;2.40;1.00;;;;;;6223014;28;20238;-53
2022/11/22 13:43:10;;;;;;;41.93;25.93;;;2.60;1.00;;;;;;6224323;28;20243;-54
2022/11/22 13:46:54;;;;;;;43.70;26.40;;;2.40;1.00;;;;;;6201925;28;20259;-54
2022/11/22 13:49:57;;;;;;;43.07;26.33;;;2.40;1.00;;;;;;6209734;28;20235;-55
2022/11/22 13:53:20;;;;;;;47.33;26.83;;;2.40;1.00;;;;;;6209151;28;20319;-53
2022/11/22 13:56:58;;;;;;;41.67;26.87;;;2.40;1.00;;;;;;6201090;28;20239;-54
2022/11/22 14:00:47;;;;;;;43.43;27.23;;;2.40;1.00;;;;;;6210503;28;20656;-55
2022/11/22 14:03:51;;;;;;;43.40;25.60;;;2.40;1.00;;;;;;6220672;28;20250;-53
2022/11/22 14:07:01;;;;;;;46.53;27.87;;;2.40;1.00;;;;;;6235145;28;20245;-54
2022/11/22 14:10:21;;;;;;;42.53;25.27;;;2.30;1.00;;;;;;6234826;28;20744;-53
2022/11/22 14:13:35;;;;;;;41.83;27.07;;;2.30;1.00;;;;;;6232840;28;20609;-54
2022/11/22 14:16:53;;;;;;;46.30;26.33;;;2.50;1.00;;;;;;6242791;28;20238;-53
2022/11/22 14:20:06;;;;;;;44.70;27.27;;;2.40;1.00;;;;;;6231723;28;20713;-54
2022/11/22 14:23:21;;;;;;;43.53;26.13;;;2.40;1.00;;;;;;6205977;28;20318;-55
2022/11/22 14:26:33;;;;;;;47.73;29.30;;;2.40;1.00;;;;;;6206773;28;20254;-55
2022/11/22 14:29:50;;;;;;;42.53;26.57;;;2.40;1.00;;;;;;6210339;28;20235;-55
2022/11/22 14:33:03;;;;;;;51.90;28.43;;;2.40;1.00;;;;;;6204012;28;20744;-55
2022/11/22 14:36:17;;;;;;;47.97;27.67;;;2.30;1.00;;;;;;6207860;28;20440;-56
2022/11/22 14:39:52;;;;;;;45.47;27.03;;;2.30;1.00;;;;;;6207775;28;20362;-54
2022/11/22 14:42:58;;;;;;;42.47;26.27;;;2.30;1.00;;;;;;6174528;28;20231;-53
2022/11/22 14:46:10;;;;;;;47.63;28.00;;;2.30;1.00;;;;;;6208716;28;20243;-54
2022/11/22 14:49:41;;;;;;;44.20;29.13;;;2.30;1.00;;;;;;6207736;28;20243;-53
2022/11/22 14:52:47;;;;;;;47.77;28.03;;;2.30;1.00;;;;;;6211811;28;20394;-53
2022/11/22 14:55:56;;;;;;;45.20;27.40;;;2.30;1.00;;;;;;6211096;28;20605;-55
2022/11/22 14:59:28;;;;;;;43.27;27.67;;;2.50;1.00;;;;;;6204001;28;20254;-53
2022/11/22 15:03:06;;;;;;;43.53;27.87;;;2.40;1.00;;;;;;6208639;28;20242;-53
2022/11/22 15:06:25;;;;;;;42.97;26.63;;;2.30;1.00;;;;;;6218203;28;20238;-54
2022/11/22 15:10:25;;;;;;;47.73;27.13;;;2.40;1.00;;;;;;6215986;28;20238;-53
2022/11/22 15:13:52;;;;;;;50.97;28.67;;;2.30;1.00;;;;;;6235048;28;20235;-54
2022/11/22 15:16:56;;;;;;;45.23;27.43;;;2.30;1.00;;;;;;6203673;28;20232;-53
2022/11/22 15:20:32;;;;;;;47.97;27.80;;;2.30;1.00;;;;;;6202462;28;20250;-53
2022/11/22 15:23:55;;;;;;;45.57;26.57;;;2.40;1.00;;;;;;6225819;28;20269;-55
2022/11/22 15:27:24;;;;;;;50.03;28.17;;;2.40;1.00;;;;;;6229023;28;20336;-53
2022/11/22 15:30:48;;;;;;;47.17;27.97;;;2.40;1.00;;;;;;6207297;28;20235;-55
2022/11/22 15:34:20;;;;;;;48.23;28.07;;;2.50;1.00;;;;;;6238089;28;20613;-54
2022/11/22 15:37:53;;;;;;;46.60;27.60;;;2.30;1.00;;;;;;6239666;28;20234;-54
2022/11/22 15:41:18;;;;;;;53.53;28.53;;;2.20;1.00;;;;;;6216924;28;20235;-54
2022/11/22 15:44:43;;;;;;;51.03;27.80;;;2.40;1.00;;;;;;6211851;28;20338;-54
2022/11/22 15:48:10;;;;;;;47.40;28.03;;;2.20;1.00;;;;;;6212565;28;20631;-53
2022/11/22 15:51:47;;;;;;;50.50;29.00;;;2.30;1.00;;;;;;6211402;28;20418;-55
2022/11/22 15:55:19;;;;;;;52.97;28.60;;;2.30;1.00;;;;;;6211154;28;20290;-55
2022/11/22 15:58:46;;;;;;;49.57;29.53;;;2.30;1.00;;;;;;6239184;28;20723;-55
2022/11/22 16:01:52;;;;;;;50.17;28.83;;;2.50;1.00;;;;;;6242370;28;20607;-54
2022/11/22 16:04:57;;;;;;;52.03;29.13;;;2.40;1.00;;;;;;6246575;28;20258;-54
2022/11/22 16:08:21;;;;;;;43.13;26.80;;;2.40;1.00;;;;;;6231918;28;20715;-54
2022/11/22 16:11:33;;;;;;;49.03;28.43;;;2.50;1.00;;;;;;6235337;28;20230;-54
2022/11/22 16:14:44;;;;;;;54.37;29.53;;;2.30;1.00;;;;;;6238402;28;20235;-54
2022/11/22 16:17:52;;;;;;;47.00;28.70;;;2.40;1.00;;;;;;6234573;28;20241;-54
2022/11/22 16:21:03;;;;;;;42.20;26.83;;;2.30;1.00;;;;;;6216262;28;20479;-54
2022/11/22 16:24:16;;;;;;;52.73;29.40;;;2.30;1.00;;;;;;6214421;28;20235;-53
2022/11/22 16:27:19;;;;;;;52.30;28.83;;;2.30;1.00;;;;;;6211711;28;20251;-54
2022/11/22 16:30:21;;;;;;;47.43;27.70;;;2.30;1.00;;;;;;6212555;28;20311;-54